sensor_id;sensor_type;location;lat;lon;timestamp;temperature;humidity
15690;DHT22;7945;48.816;11.506;2022-08-20T00:01:39;19.70;99.90
15690;DHT22;7945;48.816;11.506;2022-08-20T00:04:07;19.70;99.90
15690;DHT22;7945;48.816;11.506;2022-08-20T00:06:34;19.70;99.90
15690;DHT22;7945;48.816;11.506;2022-08-20T00:09:02;19.70;99.90
15690;DHT22;7945;48.816;11.506;2022-08-20T00:11:29;19.70;99.90
15690;DHT22;7945;48.816;11.506;2022-08-20T00:14:00;19.70;99.90
15690;DHT22;7945;48.816;11.506;2022-08-20T00:16:30;19.70;99.90
15690;DHT22;7945;48.816;11.506;2022-08-20T00:18:58;19.70;99.90
15690;DHT22;7945;48.816;11.506;2022-08-20T00:21:27;19.70;99.90
15690;DHT22;7945;48.816;11.506;2022-08-20T00:23:55;19.70;99.90
15690;DHT22;7945;48.816;11.506;2022-08-20T00:26:23;19.70;99.90
15690;DHT22;7945;48.816;11.506;2022-08-20T00:28:51;19.80;99.90
15690;DHT22;7945;48.816;11.506;2022-08-20T00:31:20;19.80;99.90
15690;DHT22;7945;48.816;11.506;2022-08-20T00:33:48;19.80;99.90
15690;DHT22;7945;48.816;11.506;2022-08-20T00:36:16;19.80;99.90
15690;DHT22;7945;48.816;11.506;2022-08-20T00:38:45;19.80;99.90
15690;DHT22;7945;48.816;11.506;2022-08-20T00:41:20;19.80;99.90
15690;DHT22;7945;48.816;11.506;2022-08-20T00:43:50;19.80;99.90
15690;DHT22;7945;48.816;11.506;2022-08-20T00:46:21;19.80;99.90
15690;DHT22;7945;48.816;11.506;2022-08-20T00:48:51;19.80;99.90
15690;DHT22;7945;48.816;11.506;2022-08-20T00:51:24;19.80;99.90
15690;DHT22;7945;48.816;11.506;2022-08-20T00:53:57;19.80;99.90
15690;DHT22;7945;48.816;11.506;2022-08-20T00:56:27;19.80;99.90
15690;DHT22;7945;48.816;11.506;2022-08-20T00:58:56;19.80;99.90
15690;DHT22;7945;48.816;11.506;2022-08-20T01:01:23;19.80;99.90
15690;DHT22;7945;48.816;11.506;2022-08-20T01:03:50;19.80;99.90
15690;DHT22;7945;48.816;11.506;2022-08-20T01:06:21;19.80;99.90
15690;DHT22;7945;48.816;11.506;2022-08-20T01:08:49;19.80;99.90
15690;DHT22;7945;48.816;11.506;2022-08-20T01:11:17;19.80;99.90
15690;DHT22;7945;48.816;11.506;2022-08-20T01:13:47;19.80;99.90
15690;DHT22;7945;48.816;11.506;2022-08-20T01:16:29;19.80;99.90
15690;DHT22;7945;48.816;11.506;2022-08-20T01:18:58;19.90;99.90
15690;DHT22;7945;48.816;11.506;2022-08-20T01:21:26;19.80;99.90
15690;DHT22;7945;48.816;11.506;2022-08-20T01:23:57;19.80;99.90
15690;DHT22;7945;48.816;11.506;2022-08-20T01:26:29;19.80;99.90
15690;DHT22;7945;48.816;11.506;2022-08-20T01:28:59;19.80;99.90
15690;DHT22;7945;48.816;11.506;2022-08-20T01:31:28;19.80;99.90
15690;DHT22;7945;48.816;11.506;2022-08-20T01:33:57;19.80;99.90
15690;DHT22;7945;48.816;11.506;2022-08-20T01:36:27;19.80;99.90
15690;DHT22;7945;48.816;11.506;2022-08-20T01:38:55;19.80;99.90
15690;DHT22;7945;48.816;11.506;2022-08-20T01:41:32;19.80;99.90
15690;DHT22;7945;48.816;11.506;2022-08-20T01:44:00;19.90;99.90
15690;DHT22;7945;48.816;11.506;2022-08-20T01:46:30;19.90;99.90
15690;DHT22;7945;48.816;11.506;2022-08-20T01:48:58;19.90;99.90
15690;DHT22;7945;48.816;11.506;2022-08-20T01:51:28;19.90;99.90
15690;DHT22;7945;48.816;11.506;2022-08-20T01:53:57;19.90;99.90
15690;DHT22;7945;48.816;11.506;2022-08-20T01:56:27;19.90;99.90
15690;DHT22;7945;48.816;11.506;2022-08-20T01:58:59;19.90;99.90
15690;DHT22;7945;48.816;11.506;2022-08-20T02:01:28;19.90;99.90
15690;DHT22;7945;48.816;11.506;2022-08-20T02:03:59;19.90;99.90
15690;DHT22;7945;48.816;11.506;2022-08-20T02:06:28;19.90;99.90
15690;DHT22;7945;48.816;11.506;2022-08-20T02:08:57;19.90;99.90
15690;DHT22;7945;48.816;11.506;2022-08-20T02:11:25;19.90;99.90
15690;DHT22;7945;48.816;11.506;2022-08-20T02:13:53;19.90;99.90
15690;DHT22;7945;48.816;11.506;2022-08-20T02:16:23;19.90;99.90
15690;DHT22;7945;48.816;11.506;2022-08-20T02:18:56;19.90;99.90
15690;DHT22;7945;48.816;11.506;2022-08-20T02:21:26;19.90;99.90
15690;DHT22;7945;48.816;11.506;2022-08-20T02:23:54;19.90;99.90
15690;DHT22;7945;48.816;11.506;2022-08-20T02:26:21;19.90;99.90
15690;DHT22;7945;48.816;11.506;2022-08-20T02:28:50;19.90;99.90
15690;DHT22;7945;48.816;11.506;2022-08-20T02:31:21;19.90;99.90
15690;DHT22;7945;48.816;11.506;2022-08-20T02:33:49;19.90;99.90
15690;DHT22;7945;48.816;11.506;2022-08-20T02:36:18;19.80;99.90
15690;DHT22;7945;48.816;11.506;2022-08-20T02:38:45;19.80;99.90
15690;DHT22;7945;48.816;11.506;2022-08-20T02:41:13;19.80;99.90
15690;DHT22;7945;48.816;11.506;2022-08-20T02:43:40;19.80;99.90
15690;DHT22;7945;48.816;11.506;2022-08-20T02:46:07;19.80;99.90
15690;DHT22;7945;48.816;11.506;2022-08-20T02:48:35;19.80;99.90
15690;DHT22;7945;48.816;11.506;2022-08-20T02:51:05;19.80;99.90
15690;DHT22;7945;48.816;11.506;2022-08-20T02:53:35;19.80;99.90
15690;DHT22;7945;48.816;11.506;2022-08-20T02:56:03;19.90;99.90
15690;DHT22;7945;48.816;11.506;2022-08-20T02:58:31;19.80;99.90
15690;DHT22;7945;48.816;11.506;2022-08-20T03:01:00;19.90;99.90
15690;DHT22;7945;48.816;11.506;2022-08-20T03:03:27;19.80;99.90
15690;DHT22;7945;48.816;11.506;2022-08-20T03:05:57;19.80;99.90
15690;DHT22;7945;48.816;11.506;2022-08-20T03:08:25;19.80;99.90
15690;DHT22;7945;48.816;11.506;2022-08-20T03:10:53;19.80;99.90
15690;DHT22;7945;48.816;11.506;2022-08-20T03:13:21;19.80;99.90
15690;DHT22;7945;48.816;11.506;2022-08-20T03:15:51;19.80;99.90
15690;DHT22;7945;48.816;11.506;2022-08-20T03:18:19;19.80;99.90
15690;DHT22;7945;48.816;11.506;2022-08-20T03:20:47;19.80;99.90
15690;DHT22;7945;48.816;11.506;2022-08-20T03:23:17;19.80;99.90
15690;DHT22;7945;48.816;11.506;2022-08-20T03:25:44;19.80;99.90
15690;DHT22;7945;48.816;11.506;2022-08-20T03:28:12;19.80;99.90
15690;DHT22;7945;48.816;11.506;2022-08-20T03:30:41;19.80;99.90
15690;DHT22;7945;48.816;11.506;2022-08-20T03:33:08;19.80;99.90
15690;DHT22;7945;48.816;11.506;2022-08-20T03:35:36;19.80;99.90
15690;DHT22;7945;48.816;11.506;2022-08-20T03:38:06;19.80;99.90
15690;DHT22;7945;48.816;11.506;2022-08-20T03:40:35;19.80;99.90
15690;DHT22;7945;48.816;11.506;2022-08-20T03:43:03;19.80;99.90
15690;DHT22;7945;48.816;11.506;2022-08-20T03:45:30;19.80;99.90
15690;DHT22;7945;48.816;11.506;2022-08-20T03:47:58;19.80;99.90
15690;DHT22;7945;48.816;11.506;2022-08-20T03:50:28;19.80;99.90
15690;DHT22;7945;48.816;11.506;2022-08-20T03:52:57;19.80;99.90
15690;DHT22;7945;48.816;11.506;2022-08-20T03:55:26;19.80;99.90
15690;DHT22;7945;48.816;11.506;2022-08-20T03:57:59;19.80;99.90
15690;DHT22;7945;48.816;11.506;2022-08-20T04:00:28;19.70;99.90
15690;DHT22;7945;48.816;11.506;2022-08-20T04:02:56;19.70;99.90
15690;DHT22;7945;48.816;11.506;2022-08-20T04:05:23;19.70;99.90
15690;DHT22;7945;48.816;11.506;2022-08-20T04:07:50;19.70;99.90
15690;DHT22;7945;48.816;11.506;2022-08-20T04:10:17;19.70;99.90
15690;DHT22;7945;48.816;11.506;2022-08-20T04:12:44;19.70;99.90
15690;DHT22;7945;48.816;11.506;2022-08-20T04:15:14;19.70;99.90
15690;DHT22;7945;48.816;11.506;2022-08-20T04:17:43;19.70;99.90
15690;DHT22;7945;48.816;11.506;2022-08-20T04:20:13;19.70;99.90
15690;DHT22;7945;48.816;11.506;2022-08-20T04:22:41;19.80;99.90
15690;DHT22;7945;48.816;11.506;2022-08-20T04:25:08;19.80;99.90
15690;DHT22;7945;48.816;11.506;2022-08-20T04:27:36;19.80;99.90
15690;DHT22;7945;48.816;11.506;2022-08-20T04:30:06;19.80;99.90
15690;DHT22;7945;48.816;11.506;2022-08-20T04:32:35;19.80;99.90
15690;DHT22;7945;48.816;11.506;2022-08-20T04:35:03;19.80;99.90
15690;DHT22;7945;48.816;11.506;2022-08-20T04:37:32;19.80;99.90
15690;DHT22;7945;48.816;11.506;2022-08-20T04:40:02;19.80;99.90
15690;DHT22;7945;48.816;11.506;2022-08-20T04:42:47;19.80;99.90
15690;DHT22;7945;48.816;11.506;2022-08-20T04:45:14;19.80;99.90
15690;DHT22;7945;48.816;11.506;2022-08-20T04:47:43;19.80;99.90
15690;DHT22;7945;48.816;11.506;2022-08-20T04:50:12;19.80;99.90
15690;DHT22;7945;48.816;11.506;2022-08-20T04:52:39;19.80;99.90
15690;DHT22;7945;48.816;11.506;2022-08-20T04:55:07;19.80;99.90
15690;DHT22;7945;48.816;11.506;2022-08-20T04:57:34;19.80;99.90
15690;DHT22;7945;48.816;11.506;2022-08-20T05:00:04;19.80;99.90
15690;DHT22;7945;48.816;11.506;2022-08-20T05:02:32;19.80;99.90
15690;DHT22;7945;48.816;11.506;2022-08-20T05:05:01;19.90;99.90
15690;DHT22;7945;48.816;11.506;2022-08-20T05:07:27;19.90;99.90
15690;DHT22;7945;48.816;11.506;2022-08-20T05:09:55;19.80;99.90
15690;DHT22;7945;48.816;11.506;2022-08-20T05:12:22;19.80;99.90
15690;DHT22;7945;48.816;11.506;2022-08-20T05:14:48;19.80;99.90
15690;DHT22;7945;48.816;11.506;2022-08-20T05:17:16;19.80;99.90
15690;DHT22;7945;48.816;11.506;2022-08-20T05:19:43;19.80;99.90
15690;DHT22;7945;48.816;11.506;2022-08-20T05:22:12;19.80;99.90
15690;DHT22;7945;48.816;11.506;2022-08-20T05:24:39;19.80;99.90
15690;DHT22;7945;48.816;11.506;2022-08-20T05:27:06;19.80;99.90
15690;DHT22;7945;48.816;11.506;2022-08-20T05:29:34;19.80;99.90
15690;DHT22;7945;48.816;11.506;2022-08-20T05:32:01;19.80;99.90
15690;DHT22;7945;48.816;11.506;2022-08-20T05:34:28;19.80;99.90
15690;DHT22;7945;48.816;11.506;2022-08-20T05:36:55;19.70;99.90
15690;DHT22;7945;48.816;11.506;2022-08-20T05:39:23;19.70;99.90
15690;DHT22;7945;48.816;11.506;2022-08-20T05:41:50;19.70;99.90
15690;DHT22;7945;48.816;11.506;2022-08-20T05:44:17;19.70;99.90
15690;DHT22;7945;48.816;11.506;2022-08-20T05:46:46;19.70;99.90
15690;DHT22;7945;48.816;11.506;2022-08-20T05:49:19;19.70;99.90
15690;DHT22;7945;48.816;11.506;2022-08-20T05:51:47;19.70;99.90
15690;DHT22;7945;48.816;11.506;2022-08-20T05:54:15;19.70;99.90
15690;DHT22;7945;48.816;11.506;2022-08-20T05:56:43;19.70;99.90
15690;DHT22;7945;48.816;11.506;2022-08-20T05:59:11;19.70;99.90
15690;DHT22;7945;48.816;11.506;2022-08-20T06:01:39;19.70;99.90
15690;DHT22;7945;48.816;11.506;2022-08-20T06:04:08;19.70;99.90
15690;DHT22;7945;48.816;11.506;2022-08-20T06:06:50;19.70;99.90
15690;DHT22;7945;48.816;11.506;2022-08-20T06:09:21;19.70;99.90
15690;DHT22;7945;48.816;11.506;2022-08-20T06:14:44;19.70;99.90
15690;DHT22;7945;48.816;11.506;2022-08-20T06:17:14;19.60;99.90
15690;DHT22;7945;48.816;11.506;2022-08-20T06:19:42;19.60;99.90
15690;DHT22;7945;48.816;11.506;2022-08-20T06:22:10;19.60;99.90
15690;DHT22;7945;48.816;11.506;2022-08-20T06:24:37;19.60;99.90
15690;DHT22;7945;48.816;11.506;2022-08-20T06:27:04;19.60;99.90
15690;DHT22;7945;48.816;11.506;2022-08-20T06:29:32;19.60;99.90
15690;DHT22;7945;48.816;11.506;2022-08-20T06:32:00;19.70;99.90
15690;DHT22;7945;48.816;11.506;2022-08-20T06:34:28;19.60;99.90
15690;DHT22;7945;48.816;11.506;2022-08-20T06:36:55;19.60;99.90
15690;DHT22;7945;48.816;11.506;2022-08-20T06:39:23;19.60;99.90
15690;DHT22;7945;48.816;11.506;2022-08-20T06:41:51;19.60;99.90
15690;DHT22;7945;48.816;11.506;2022-08-20T06:44:17;19.60;99.90
15690;DHT22;7945;48.816;11.506;2022-08-20T06:46:44;19.60;99.90
15690;DHT22;7945;48.816;11.506;2022-08-20T06:49:13;19.60;99.90
15690;DHT22;7945;48.816;11.506;2022-08-20T06:51:40;19.60;99.90
15690;DHT22;7945;48.816;11.506;2022-08-20T06:54:07;19.70;99.90
15690;DHT22;7945;48.816;11.506;2022-08-20T06:56:34;19.70;99.90
15690;DHT22;7945;48.816;11.506;2022-08-20T06:59:01;19.70;99.90
15690;DHT22;7945;48.816;11.506;2022-08-20T07:01:28;19.70;99.90
15690;DHT22;7945;48.816;11.506;2022-08-20T07:03:55;19.70;99.90
15690;DHT22;7945;48.816;11.506;2022-08-20T07:06:25;19.70;99.90
15690;DHT22;7945;48.816;11.506;2022-08-20T07:08:53;19.70;99.90
15690;DHT22;7945;48.816;11.506;2022-08-20T07:11:20;19.60;99.90
15690;DHT22;7945;48.816;11.506;2022-08-20T07:13:47;19.60;99.90
15690;DHT22;7945;48.816;11.506;2022-08-20T07:16:14;19.50;99.90
15690;DHT22;7945;48.816;11.506;2022-08-20T07:18:41;19.60;99.90
15690;DHT22;7945;48.816;11.506;2022-08-20T07:21:08;19.60;99.90
15690;DHT22;7945;48.816;11.506;2022-08-20T07:23:37;19.60;99.90
15690;DHT22;7945;48.816;11.506;2022-08-20T07:26:06;19.60;99.90
15690;DHT22;7945;48.816;11.506;2022-08-20T07:28:33;19.60;99.90
15690;DHT22;7945;48.816;11.506;2022-08-20T07:31:00;19.50;99.90
15690;DHT22;7945;48.816;11.506;2022-08-20T07:33:44;19.60;99.90
15690;DHT22;7945;48.816;11.506;2022-08-20T07:36:11;19.60;99.90
15690;DHT22;7945;48.816;11.506;2022-08-20T07:38:40;19.60;99.90
15690;DHT22;7945;48.816;11.506;2022-08-20T07:41:10;19.50;99.90
15690;DHT22;7945;48.816;11.506;2022-08-20T07:43:40;19.60;99.90
15690;DHT22;7945;48.816;11.506;2022-08-20T07:46:10;19.60;99.90
15690;DHT22;7945;48.816;11.506;2022-08-20T07:48:38;19.60;99.90
15690;DHT22;7945;48.816;11.506;2022-08-20T07:51:08;19.60;99.90
15690;DHT22;7945;48.816;11.506;2022-08-20T07:53:36;19.60;99.90
15690;DHT22;7945;48.816;11.506;2022-08-20T07:56:08;19.60;99.90
15690;DHT22;7945;48.816;11.506;2022-08-20T07:58:38;19.60;99.90
15690;DHT22;7945;48.816;11.506;2022-08-20T08:01:06;19.60;99.90
15690;DHT22;7945;48.816;11.506;2022-08-20T08:03:35;19.60;99.90
15690;DHT22;7945;48.816;11.506;2022-08-20T08:06:03;19.60;99.90
15690;DHT22;7945;48.816;11.506;2022-08-20T08:08:31;19.60;99.90
15690;DHT22;7945;48.816;11.506;2022-08-20T08:11:00;19.60;99.90
15690;DHT22;7945;48.816;11.506;2022-08-20T08:13:32;19.60;99.90
15690;DHT22;7945;48.816;11.506;2022-08-20T08:16:01;19.60;99.90
15690;DHT22;7945;48.816;11.506;2022-08-20T08:18:34;19.60;99.90
15690;DHT22;7945;48.816;11.506;2022-08-20T08:21:03;19.60;99.90
15690;DHT22;7945;48.816;11.506;2022-08-20T08:23:31;19.70;99.90
15690;DHT22;7945;48.816;11.506;2022-08-20T08:25:59;19.70;99.90
15690;DHT22;7945;48.816;11.506;2022-08-20T08:28:26;19.60;99.90
15690;DHT22;7945;48.816;11.506;2022-08-20T08:30:56;19.60;99.90
15690;DHT22;7945;48.816;11.506;2022-08-20T08:33:24;19.60;99.90
15690;DHT22;7945;48.816;11.506;2022-08-20T08:35:57;19.60;99.90
15690;DHT22;7945;48.816;11.506;2022-08-20T08:38:26;19.60;99.90
15690;DHT22;7945;48.816;11.506;2022-08-20T08:40:55;19.60;99.90
15690;DHT22;7945;48.816;11.506;2022-08-20T08:43:25;19.60;99.90
15690;DHT22;7945;48.816;11.506;2022-08-20T08:45:58;19.60;99.90
15690;DHT22;7945;48.816;11.506;2022-08-20T08:48:30;19.60;99.90
15690;DHT22;7945;48.816;11.506;2022-08-20T08:51:00;19.60;99.90
15690;DHT22;7945;48.816;11.506;2022-08-20T08:53:31;19.70;99.90
15690;DHT22;7945;48.816;11.506;2022-08-20T08:56:01;19.70;99.90
15690;DHT22;7945;48.816;11.506;2022-08-20T08:58:28;19.70;99.90
15690;DHT22;7945;48.816;11.506;2022-08-20T09:00:57;19.70;99.90
15690;DHT22;7945;48.816;11.506;2022-08-20T09:03:28;19.70;99.90
15690;DHT22;7945;48.816;11.506;2022-08-20T09:05:59;19.70;99.90
15690;DHT22;7945;48.816;11.506;2022-08-20T09:08:28;19.70;99.90
15690;DHT22;7945;48.816;11.506;2022-08-20T09:11:00;19.70;99.90
15690;DHT22;7945;48.816;11.506;2022-08-20T09:13:27;19.60;99.90
15690;DHT22;7945;48.816;11.506;2022-08-20T09:15:54;19.60;99.90
15690;DHT22;7945;48.816;11.506;2022-08-20T09:18:22;19.70;99.90
15690;DHT22;7945;48.816;11.506;2022-08-20T09:20:49;19.70;99.90
15690;DHT22;7945;48.816;11.506;2022-08-20T09:23:16;19.70;99.90
15690;DHT22;7945;48.816;11.506;2022-08-20T09:25:43;19.80;99.90
15690;DHT22;7945;48.816;11.506;2022-08-20T09:28:09;19.80;99.90
15690;DHT22;7945;48.816;11.506;2022-08-20T09:30:36;19.90;99.90
15690;DHT22;7945;48.816;11.506;2022-08-20T09:33:03;19.80;99.90
15690;DHT22;7945;48.816;11.506;2022-08-20T09:35:31;19.80;99.90
15690;DHT22;7945;48.816;11.506;2022-08-20T09:37:59;19.90;99.90
15690;DHT22;7945;48.816;11.506;2022-08-20T09:40:26;19.90;99.90
15690;DHT22;7945;48.816;11.506;2022-08-20T09:42:52;19.90;99.90
15690;DHT22;7945;48.816;11.506;2022-08-20T09:45:19;20.00;99.90
15690;DHT22;7945;48.816;11.506;2022-08-20T09:47:46;20.00;99.90
15690;DHT22;7945;48.816;11.506;2022-08-20T09:50:14;20.00;99.90
15690;DHT22;7945;48.816;11.506;2022-08-20T09:52:45;20.00;99.90
15690;DHT22;7945;48.816;11.506;2022-08-20T09:55:19;20.00;99.90
15690;DHT22;7945;48.816;11.506;2022-08-20T09:57:47;20.00;99.90
15690;DHT22;7945;48.816;11.506;2022-08-20T10:00:15;20.00;99.90
15690;DHT22;7945;48.816;11.506;2022-08-20T10:02:42;20.00;99.90
15690;DHT22;7945;48.816;11.506;2022-08-20T10:05:09;20.00;99.90
15690;DHT22;7945;48.816;11.506;2022-08-20T10:07:38;20.10;99.90
15690;DHT22;7945;48.816;11.506;2022-08-20T10:10:09;20.10;99.90
15690;DHT22;7945;48.816;11.506;2022-08-20T10:12:37;20.20;99.90
15690;DHT22;7945;48.816;11.506;2022-08-20T10:15:07;20.20;99.90
15690;DHT22;7945;48.816;11.506;2022-08-20T10:17:36;20.30;99.90
15690;DHT22;7945;48.816;11.506;2022-08-20T10:20:03;20.40;99.90
15690;DHT22;7945;48.816;11.506;2022-08-20T10:22:31;20.40;99.90
15690;DHT22;7945;48.816;11.506;2022-08-20T10:24:58;20.50;99.90
15690;DHT22;7945;48.816;11.506;2022-08-20T10:27:26;20.50;99.90
15690;DHT22;7945;48.816;11.506;2022-08-20T10:29:53;20.50;99.90
15690;DHT22;7945;48.816;11.506;2022-08-20T10:32:20;20.50;99.90
15690;DHT22;7945;48.816;11.506;2022-08-20T10:34:47;20.50;99.90
15690;DHT22;7945;48.816;11.506;2022-08-20T10:37:14;20.50;99.90
15690;DHT22;7945;48.816;11.506;2022-08-20T10:39:41;20.40;99.90
15690;DHT22;7945;48.816;11.506;2022-08-20T10:42:08;20.50;99.90
15690;DHT22;7945;48.816;11.506;2022-08-20T10:44:37;20.40;99.90
15690;DHT22;7945;48.816;11.506;2022-08-20T10:47:15;20.50;99.90
15690;DHT22;7945;48.816;11.506;2022-08-20T10:49:42;20.50;99.90
15690;DHT22;7945;48.816;11.506;2022-08-20T10:52:09;20.50;99.90
15690;DHT22;7945;48.816;11.506;2022-08-20T10:54:36;20.50;99.90
15690;DHT22;7945;48.816;11.506;2022-08-20T10:57:05;20.50;99.90
15690;DHT22;7945;48.816;11.506;2022-08-20T10:59:38;20.50;99.90
15690;DHT22;7945;48.816;11.506;2022-08-20T11:02:05;20.50;99.90
15690;DHT22;7945;48.816;11.506;2022-08-20T11:04:32;20.50;99.90
15690;DHT22;7945;48.816;11.506;2022-08-20T11:07:12;20.60;99.90
15690;DHT22;7945;48.816;11.506;2022-08-20T11:09:40;20.60;99.90
15690;DHT22;7945;48.816;11.506;2022-08-20T11:12:07;20.70;99.90
15690;DHT22;7945;48.816;11.506;2022-08-20T11:14:34;20.70;99.90
15690;DHT22;7945;48.816;11.506;2022-08-20T11:17:02;20.80;99.90
15690;DHT22;7945;48.816;11.506;2022-08-20T11:19:29;20.80;99.90
15690;DHT22;7945;48.816;11.506;2022-08-20T11:21:56;20.80;99.90
15690;DHT22;7945;48.816;11.506;2022-08-20T11:24:23;21.00;99.90
15690;DHT22;7945;48.816;11.506;2022-08-20T11:26:50;21.00;99.90
15690;DHT22;7945;48.816;11.506;2022-08-20T11:29:18;21.10;99.90
15690;DHT22;7945;48.816;11.506;2022-08-20T11:31:47;21.20;99.90
15690;DHT22;7945;48.816;11.506;2022-08-20T11:34:15;21.20;99.90
15690;DHT22;7945;48.816;11.506;2022-08-20T11:36:42;21.20;99.90
15690;DHT22;7945;48.816;11.506;2022-08-20T11:39:10;21.30;99.90
15690;DHT22;7945;48.816;11.506;2022-08-20T11:41:37;21.30;99.90
15690;DHT22;7945;48.816;11.506;2022-08-20T11:44:04;21.20;99.90
15690;DHT22;7945;48.816;11.506;2022-08-20T11:46:31;21.30;99.90
15690;DHT22;7945;48.816;11.506;2022-08-20T11:48:58;21.30;99.90
15690;DHT22;7945;48.816;11.506;2022-08-20T11:51:26;21.40;99.90
15690;DHT22;7945;48.816;11.506;2022-08-20T11:53:53;21.50;99.90
15690;DHT22;7945;48.816;11.506;2022-08-20T11:56:20;21.60;99.90
15690;DHT22;7945;48.816;11.506;2022-08-20T11:58:47;21.70;99.90
15690;DHT22;7945;48.816;11.506;2022-08-20T12:01:14;21.70;99.90
15690;DHT22;7945;48.816;11.506;2022-08-20T12:03:41;21.70;99.90
15690;DHT22;7945;48.816;11.506;2022-08-20T12:06:08;21.80;99.90
15690;DHT22;7945;48.816;11.506;2022-08-20T12:08:36;21.80;99.90
15690;DHT22;7945;48.816;11.506;2022-08-20T12:11:03;21.80;99.90
15690;DHT22;7945;48.816;11.506;2022-08-20T12:13:32;21.90;99.90
15690;DHT22;7945;48.816;11.506;2022-08-20T12:15:59;21.90;99.90
15690;DHT22;7945;48.816;11.506;2022-08-20T12:18:27;22.10;99.90
15690;DHT22;7945;48.816;11.506;2022-08-20T12:20:54;22.10;99.90
15690;DHT22;7945;48.816;11.506;2022-08-20T12:23:21;22.10;99.90
15690;DHT22;7945;48.816;11.506;2022-08-20T12:25:49;22.20;99.90
15690;DHT22;7945;48.816;11.506;2022-08-20T12:28:16;22.30;99.90
15690;DHT22;7945;48.816;11.506;2022-08-20T12:30:43;22.20;99.90
15690;DHT22;7945;48.816;11.506;2022-08-20T12:33:09;22.20;99.90
15690;DHT22;7945;48.816;11.506;2022-08-20T12:35:38;22.10;99.90
15690;DHT22;7945;48.816;11.506;2022-08-20T12:38:05;22.00;99.90
15690;DHT22;7945;48.816;11.506;2022-08-20T12:40:32;21.80;99.90
15690;DHT22;7945;48.816;11.506;2022-08-20T12:43:02;21.80;99.90
15690;DHT22;7945;48.816;11.506;2022-08-20T12:45:29;21.70;99.90
15690;DHT22;7945;48.816;11.506;2022-08-20T12:48:00;21.60;99.90
15690;DHT22;7945;48.816;11.506;2022-08-20T12:50:27;21.60;99.90
15690;DHT22;7945;48.816;11.506;2022-08-20T12:52:54;21.60;99.90
15690;DHT22;7945;48.816;11.506;2022-08-20T12:55:22;21.60;99.90
15690;DHT22;7945;48.816;11.506;2022-08-20T12:57:51;21.60;99.90
15690;DHT22;7945;48.816;11.506;2022-08-20T13:00:22;21.60;99.90
15690;DHT22;7945;48.816;11.506;2022-08-20T13:02:49;21.60;99.90
15690;DHT22;7945;48.816;11.506;2022-08-20T13:05:16;21.60;99.90
15690;DHT22;7945;48.816;11.506;2022-08-20T13:07:44;21.60;99.90
15690;DHT22;7945;48.816;11.506;2022-08-20T13:10:13;21.60;99.90
15690;DHT22;7945;48.816;11.506;2022-08-20T13:12:40;21.60;99.90
15690;DHT22;7945;48.816;11.506;2022-08-20T13:15:08;21.60;99.90
15690;DHT22;7945;48.816;11.506;2022-08-20T13:17:36;21.60;99.90
15690;DHT22;7945;48.816;11.506;2022-08-20T13:20:05;21.60;99.90
15690;DHT22;7945;48.816;11.506;2022-08-20T13:22:34;21.70;99.90
15690;DHT22;7945;48.816;11.506;2022-08-20T13:25:01;21.70;99.90
15690;DHT22;7945;48.816;11.506;2022-08-20T13:27:27;21.80;99.90
15690;DHT22;7945;48.816;11.506;2022-08-20T13:29:55;21.80;99.90
15690;DHT22;7945;48.816;11.506;2022-08-20T13:32:22;21.80;99.90
15690;DHT22;7945;48.816;11.506;2022-08-20T13:34:51;21.80;99.90
15690;DHT22;7945;48.816;11.506;2022-08-20T13:37:19;21.90;99.90
15690;DHT22;7945;48.816;11.506;2022-08-20T13:39:46;21.90;99.90
15690;DHT22;7945;48.816;11.506;2022-08-20T13:42:14;21.90;99.90
15690;DHT22;7945;48.816;11.506;2022-08-20T13:44:41;22.00;99.90
15690;DHT22;7945;48.816;11.506;2022-08-20T13:47:15;21.90;99.90
15690;DHT22;7945;48.816;11.506;2022-08-20T13:49:42;21.90;99.90
15690;DHT22;7945;48.816;11.506;2022-08-20T13:52:10;21.90;99.90
15690;DHT22;7945;48.816;11.506;2022-08-20T13:54:38;21.90;99.90
15690;DHT22;7945;48.816;11.506;2022-08-20T13:57:07;21.90;99.90
15690;DHT22;7945;48.816;11.506;2022-08-20T13:59:35;21.90;99.90
15690;DHT22;7945;48.816;11.506;2022-08-20T14:02:03;21.90;99.90
15690;DHT22;7945;48.816;11.506;2022-08-20T14:04:30;22.00;99.90
15690;DHT22;7945;48.816;11.506;2022-08-20T14:06:57;22.00;99.90
15690;DHT22;7945;48.816;11.506;2022-08-20T14:09:25;22.00;99.90
15690;DHT22;7945;48.816;11.506;2022-08-20T14:11:53;22.00;99.90
15690;DHT22;7945;48.816;11.506;2022-08-20T14:14:19;22.00;99.90
15690;DHT22;7945;48.816;11.506;2022-08-20T14:16:46;22.00;99.90
15690;DHT22;7945;48.816;11.506;2022-08-20T14:19:13;22.10;99.90
15690;DHT22;7945;48.816;11.506;2022-08-20T14:21:40;22.10;99.90
15690;DHT22;7945;48.816;11.506;2022-08-20T14:24:07;22.10;99.90
15690;DHT22;7945;48.816;11.506;2022-08-20T14:26:35;22.20;99.90
15690;DHT22;7945;48.816;11.506;2022-08-20T14:29:02;22.20;99.90
15690;DHT22;7945;48.816;11.506;2022-08-20T14:31:29;22.30;99.90
15690;DHT22;7945;48.816;11.506;2022-08-20T14:33:55;22.30;99.90
15690;DHT22;7945;48.816;11.506;2022-08-20T14:36:22;22.30;99.90
15690;DHT22;7945;48.816;11.506;2022-08-20T14:38:49;22.20;99.90
15690;DHT22;7945;48.816;11.506;2022-08-20T14:41:16;22.20;99.90
15690;DHT22;7945;48.816;11.506;2022-08-20T14:43:44;22.20;99.90
15690;DHT22;7945;48.816;11.506;2022-08-20T14:46:11;22.00;99.90
15690;DHT22;7945;48.816;11.506;2022-08-20T14:48:38;21.80;99.90
15690;DHT22;7945;48.816;11.506;2022-08-20T14:51:05;21.70;99.90
15690;DHT22;7945;48.816;11.506;2022-08-20T14:53:34;21.60;99.90
15690;DHT22;7945;48.816;11.506;2022-08-20T14:56:02;21.50;99.90
15690;DHT22;7945;48.816;11.506;2022-08-20T14:58:30;21.40;99.90
15690;DHT22;7945;48.816;11.506;2022-08-20T15:00:58;21.30;99.90
15690;DHT22;7945;48.816;11.506;2022-08-20T15:03:25;21.20;99.90
15690;DHT22;7945;48.816;11.506;2022-08-20T15:05:55;21.10;99.90
15690;DHT22;7945;48.816;11.506;2022-08-20T15:08:22;21.00;99.90
15690;DHT22;7945;48.816;11.506;2022-08-20T15:10:49;20.90;99.90
15690;DHT22;7945;48.816;11.506;2022-08-20T15:13:15;20.90;99.90
15690;DHT22;7945;48.816;11.506;2022-08-20T15:15:43;20.90;99.90
15690;DHT22;7945;48.816;11.506;2022-08-20T15:18:11;20.80;99.90
15690;DHT22;7945;48.816;11.506;2022-08-20T15:20:38;20.90;99.90
15690;DHT22;7945;48.816;11.506;2022-08-20T15:23:05;20.80;99.90
15690;DHT22;7945;48.816;11.506;2022-08-20T15:25:34;20.80;99.90
15690;DHT22;7945;48.816;11.506;2022-08-20T15:28:01;20.70;99.90
15690;DHT22;7945;48.816;11.506;2022-08-20T15:30:29;20.70;99.90
15690;DHT22;7945;48.816;11.506;2022-08-20T15:32:57;20.60;99.90
15690;DHT22;7945;48.816;11.506;2022-08-20T15:35:26;20.50;99.90
15690;DHT22;7945;48.816;11.506;2022-08-20T15:37:55;20.50;99.90
15690;DHT22;7945;48.816;11.506;2022-08-20T15:40:23;20.50;99.90